Ernest Shackleton — ZDLS1 — position and weather

sailwx.info

Track history (hours):
 
Tides and Currents Weather Stations Pressure Air Temp Water Temp Dewpoint Dewpoint Depression Visibility Wind Speed Wind Dir Waves Ship Positions

Oceanographic research ship Ernest Shackleton (UK/Norway)

Detailed information on ship capabilities available from University of Delaware's Ocean Information Center and ARCUS's ALIAS (Arctic Logistics Information and Support) project.

Last reported at 2015-Feb-01 18:00 UTC. Time now 2015-Feb-01 19:43 UTC.
Position S 54°30' W 036°00'.

Length 80 m; beam 17 m; draft 7.4 m.

Type: Other ship. MMSI: 740357000.

AWS

Barometer 995.6 mb
Air temperature 4.4 ° C
Dewpoint 2.5 ° C

Date/timePositionNaut miles runAvg speedWind from/ knotsBaromVisibWave heightAir tempDewpointWater temp
2015-Feb-01 18:00S 54°30' W 036°00'3 1.7 995.6 4.4 2.5
2015-Feb-01 16:00S 54°30' W 036°06'0 0.0 997.4 6.4 2.7
2015-Feb-01 15:00S 54°30' W 036°06'0 0.0 998.6 4.7 2.8
2015-Feb-01 13:00S 54°30' W 036°06'0 0.0 1000.3 2.6 2.2
2015-Feb-01 12:00S 54°30' W 036°06'0 0.0 1001.1 2.3 2.0
2015-Feb-01 10:00S 54°30' W 036°06'3 3.5 1001.9 1.0 0.7
2015-Feb-01 09:00S 54°30' W 036°00'3 3.5 1002.2 1.6 1.3
2015-Feb-01 08:00S 54°30' W 035°54'0 0.0 1002.5 1.6 1.3
2015-Feb-01 07:00S 54°30' W 035°54'0 0.0 1002.5 1.9 1.6
2015-Feb-01 06:00S 54°30' W 035°54'6 6.0 1002.7 1.9 1.6
2015-Feb-01 05:00S 54°24' W 035°54'0 0.0 1002.9 2.1 1.8
2015-Feb-01 04:00S 54°24' W 035°54'6 6.0 1002.9 1.9 1.6
2015-Feb-01 03:00S 54°30' W 035°54'0 0.0 1003.1 2.3 2.0
2015-Feb-01 02:00S 54°30' W 035°54'0 0.0 1003.1 2.4 2.0
2015-Feb-01 01:00S 54°30' W 035°54'6 6.0 1003.1 2.1 1.7
2015-Feb-01 00:00S 54°24' W 035°54'3 3.5 1003.1 2.2 1.6
2015-Jan-31 23:00S 54°24' W 036°00'6 6.0 1002.2 3.4 2.4
2015-Jan-31 22:00S 54°18' W 036°00'4 3.5 1001.7 4.6 3.1
2015-Jan-31 21:00S 54°18' W 036°06'11 5.3 1001.0 5.1 3.2
2015-Jan-31 19:00S 54°18' W 036°24'0 0.0 1000.3 9.3 3.4
2015-Jan-31 18:00S 54°18' W 036°24'0 0.0 999.7 10.6 3.1
2015-Jan-31 17:00S 54°18' W 036°24'0 0.0 999.4 8.3 3.3
2015-Jan-31 16:00S 54°18' W 036°24'0 0.0 998.8 10.4 2.9
2015-Jan-31 15:00S 54°18' W 036°24'0 0.0 998.2 10.8 3.5
2015-Jan-31 14:00S 54°18' W 036°24'0 0.0 998.1 7.3 2.1
2015-Jan-31 12:00S 54°18' W 036°24'0 0.0 997.7 6.9 1.5
2015-Jan-31 11:00S 54°18' W 036°24'0 0.0 997.5 6.7 1.7
2015-Jan-31 10:00S 54°18' W 036°24'0 0.0 997.8 5.9 2.4
2015-Jan-31 09:00S 54°18' W 036°24'0 0.0 998.1 4.1 2.6
2015-Jan-31 07:00S 54°18' W 036°24'0 0.0 998.3 3.6 2.4
2015-Jan-31 06:00S 54°18' W 036°24'0 0.0 998.3 3.7 2.5
2015-Jan-31 05:00S 54°18' W 036°24'0 0.0 998.2 3.9 2.7
2015-Jan-31 04:00S 54°18' W 036°24'0 0.0 998.2 3.9 2.9
2015-Jan-31 03:00S 54°18' W 036°24'0 0.0 998.2 2.8 2.0
2015-Jan-31 02:00S 54°18' W 036°24'0 0.0 998.3 3.0 2.1
2015-Jan-31 01:00S 54°18' W 036°24'0 0.0 998.0 2.8 1.7
2015-Jan-31 00:00S 54°18' W 036°24'7 3.5 997.6 3.5 2.1
2015-Jan-30 22:00S 54°24' W 036°18'0 0.0 997.5 4.7 2.4
2015-Jan-30 21:00S 54°24' W 036°18'0 0.0 997.0 5.9 2.0
2015-Jan-30 20:00S 54°24' W 036°18'0 0.0 996.1 6.6 2.1
2015-Jan-30 19:00S 54°24' W 036°18'0 0.0 995.6 7.3 2.1
2015-Jan-30 18:00S 54°24' W 036°18'0 0.0 994.6 9.5 2.2
2015-Jan-30 16:00S 54°24' W 036°18'0 0.0 994.8 7.3 3.6
2015-Jan-30 14:00S 54°24' W 036°18'3 3.5 994.8 4.4 1.7
2015-Jan-30 13:00S 54°24' W 036°24'6 6.0 995.4 3.9 1.7
2015-Jan-30 12:00S 54°18' W 036°24'0 0.0 995.5 4.5 2.1
2015-Jan-30 11:00S 54°18' W 036°24'0 0.0 995.9 3.9 1.7
2015-Jan-30 09:00S 54°18' W 036°24'0 0.0 995.5 4.1 2.0
2015-Jan-30 08:00S 54°18' W 036°24'0 0.0 995.6 3.4 1.4
2015-Jan-30 06:00S 54°18' W 036°24'0 0.0 995.0 3.7 2.3
2015-Jan-30 05:00S 54°18' W 036°24'0 0.0 995.1 3.1 1.9
2015-Jan-30 04:00S 54°18' W 036°24'0 0.0 995.1 3.3 2.2
2015-Jan-30 03:00S 54°18' W 036°24'0 0.0 995.3 3.5 2.3
2015-Jan-30 02:00S 54°18' W 036°24'0 0.0 995.0 3.4 2.2
2015-Jan-30 01:00S 54°18' W 036°24'0 0.0 995.0 3.2 2.0
2015-Jan-30 00:00S 54°18' W 036°24'0 0.0 995.0 3.3 2.1
2015-Jan-29 23:00S 54°18' W 036°24'0 0.0 994.5 3.4 2.1
2015-Jan-29 22:00S 54°18' W 036°24'0 0.0 994.0 3.4 1.9
2015-Jan-29 21:00S 54°18' W 036°24'0 0.0 994.0 4.3 2.0
2015-Jan-29 20:00S 54°18' W 036°24'0 0.0 993.8 4.4 2.3
2015-Jan-29 19:00S 54°18' W 036°24'0 0.0 993.8 4.9 2.6
2015-Jan-29 18:00S 54°18' W 036°24'0 0.0 993.8 4.3 1.9
2015-Jan-29 16:00S 54°18' W 036°24'0 0.0 994.8 5.4 2.2
2015-Jan-29 15:00S 54°18' W 036°24'0 0.0 995.5 6.1 3.2
2015-Jan-29 14:00S 54°18' W 036°24'0 0.0 996.3 5.4 3.1
2015-Jan-29 13:00S 54°18' W 036°24'4 3.5 996.9 4.7 2.4
2015-Jan-29 12:00S 54°18' W 036°30'0 0.0 997.7 3.5 2.0
2015-Jan-29 11:00S 54°18' W 036°30'0 0.0 998.7 2.4 1.2
2015-Jan-29 10:00S 54°18' W 036°30'0 0.0 999.1 2.8 1.6
2015-Jan-29 09:00S 54°18' W 036°30'0 0.0 999.7 2.4 1.1
2015-Jan-29 08:00S 54°18' W 036°30'0 0.0 1000.1 2.5 0.9
2015-Jan-29 06:00S 54°18' W 036°30'0 0.0 1001.2 2.6 0.5
2015-Jan-29 05:00S 54°18' W 036°30'0 0.0 1002.0 3.3 0.9
2015-Jan-29 03:00S 54°18' W 036°30'0 0.0 1004.2 3.1 1.1
2015-Jan-29 02:00S 54°18' W 036°30'0 0.0 1005.1 3.8 0.6
2015-Jan-29 01:00S 54°18' W 036°30'0 0.0 1006.2 3.5 0.5
2015-Jan-29 00:00S 54°18' W 036°30'0 0.0 1006.0 3.2 0.8
2015-Jan-28 23:00S 54°18' W 036°30'0 0.0 1006.0 3.7 0.5
2015-Jan-28 22:00S 54°18' W 036°30'0 0.0 1006.8 4.0 0.6
2015-Jan-28 21:00S 54°18' W 036°30'0 0.0 1007.2 4.7 0.5
2015-Jan-28 20:00S 54°18' W 036°30'0 0.0 1007.2 7.1 1.8
2015-Jan-28 19:00S 54°18' W 036°30'0 0.0 1007.1 7.4 2.4
2015-Jan-28 18:00S 54°18' W 036°30'0 0.0 1007.4 10.7 1.1
2015-Jan-28 17:00S 54°18' W 036°30'0 0.0 1007.5 8.0 1.9
2015-Jan-28 16:00S 54°18' W 036°30'0 0.0 1008.2 8.5 2.5
2015-Jan-28 15:00S 54°18' W 036°30'0 0.0 1008.8 7.3 1.8
2015-Jan-28 14:00S 54°18' W 036°30'0 0.0 1009.0 6.6 2.4
2015-Jan-28 13:00S 54°18' W 036°30'0 0.0 1009.2 9.0 2.1
2015-Jan-28 12:00S 54°18' W 036°30'0 0.0 1009.5 6.3 2.2
2015-Jan-28 10:00S 54°18' W 036°30'0 0.0 1010.0 4.8 1.5
2015-Jan-28 09:00S 54°18' W 036°30'0 0.0 1010.1 3.0 0.8
2015-Jan-28 08:00S 54°18' W 036°30'1312.5 1009.9 2.7 0.8
2015-Jan-28 07:00S 54°06' W 036°24'7 7.0 1010.2 3.1 0.8
2015-Jan-28 06:00S 54°06' W 036°36'12 6.1 1010.3 3.5 1.3
2015-Jan-28 04:00S 54°00' W 036°54'4 3.5 1011.0 3.2-0.0
2015-Jan-28 03:00S 54°00' W 037°00'9 9.3 1011.1 3.6-0.4
2015-Jan-28 02:00S 53°54' W 037°12'7 7.1 1010.3 3.3-0.6
2015-Jan-28 01:00S 53°54' W 037°24'1110.6 1010.6 3.3-0.9
2015-Jan-28 00:00S 53°54' W 037°42'1212.2 1010.5 2.6-1.4
2015-Jan-27 23:00S 53°48' W 038°00'1110.6 1010.8 2.4-0.7
2015-Jan-27 22:00S 53°48' W 038°18'1110.6 1010.8 2.4-0.9
2015-Jan-27 21:00S 53°48' W 038°36'1110.6 1010.5 2.6-1.2
2015-Jan-27 20:00S 53°48' W 038°54'1212.2 1010.0 2.6-1.2
2015-Jan-27 19:00S 53°42' W 039°12'7 7.1 1009.8 2.6-1.5
2015-Jan-27 18:00S 53°42' W 039°24'1110.7 1009.4 2.6-1.8
2015-Jan-27 17:00S 53°42' W 039°42'1110.7 1009.1 2.4-1.0
2015-Jan-27 16:00S 53°42' W 040°00'1212.2 1009.0 2.4-0.2
2015-Jan-27 15:00S 53°36' W 040°18'7 7.1 1008.6 2.3-0.0
2015-Jan-27 14:00S 53°36' W 040°30'1110.7 1008.3 2.0-0.2
2015-Jan-27 13:00S 53°36' W 040°48'1110.7 1008.2 2.2-0.7
2015-Jan-27 12:00S 53°36' W 041°06'18 8.9 1007.9 1.9-0.3
2015-Jan-27 10:00S 53°36' W 041°36'1110.7 1007.1 2.0-0.9
2015-Jan-27 09:00S 53°36' W 041°54'19 9.4 1006.2 2.1-1.5
2015-Jan-27 07:00S 53°30' W 042°24'7 7.0 1005.2 1.3-0.6
2015-Jan-27 06:00S 53°24' W 042°30'1110.7 1004.5 1.4-0.3
2015-Jan-27 05:00S 53°24' W 042°48'19 9.4 1004.3 1.8-0.9
2015-Jan-27 03:00S 53°18' W 043°18'29 9.6 1004.0 1.7-0.6
2015-Jan-27 00:00S 53°18' W 044°06'1212.3 1003.5 1.7-1.3
2015-Jan-26 23:00S 53°12' W 044°24'1110.8 1003.3 2.0-1.1
2015-Jan-26 22:00S 53°12' W 044°42'1110.8 1003.2 2.2-0.7
2015-Jan-26 21:00S 53°12' W 045°00'19 9.5 1002.7 2.2-1.2
2015-Jan-26 19:00S 53°06' W 045°30'1110.8 1002.2 2.6-0.7
2015-Jan-26 18:00S 53°06' W 045°48'1110.8 1002.0 2.8-1.1
2015-Jan-26 17:00S 53°06' W 046°06'1110.8 1001.8 2.8-1.1
2015-Jan-26 16:00S 53°06' W 046°24'19 9.5 1002.0 2.8-1.3
2015-Jan-26 14:00S 53°00' W 046°54'1110.8 1002.3 2.8-0.8
2015-Jan-26 13:00S 53°00' W 047°12'7 7.2 1002.1 2.9-0.4
2015-Jan-26 12:00S 53°00' W 047°24'1212.4 1002.4 2.9-0.5
2015-Jan-26 11:00S 52°54' W 047°42'1110.9 1002.6 3.3-0.5
2015-Jan-26 10:00S 52°54' W 048°00'7 7.2 1002.1 3.2-1.0
2015-Jan-26 09:00S 52°54' W 048°12'2311.3 1001.8 3.2-0.9
2015-Jan-26 07:00S 52°48' W 048°48'7 7.3 1001.4 3.4-0.0
2015-Jan-26 06:00S 52°48' W 049°00'1110.9 1001.3 3.6 0.2
2015-Jan-26 05:00S 52°48' W 049°18'1110.9 1001.1 3.8-0.1
2015-Jan-26 04:00S 52°48' W 049°36'9 9.4 1001.5 3.7-0.2
2015-Jan-26 03:00S 52°42' W 049°48'1110.9 1001.2 3.7-0.3
2015-Jan-26 02:00S 52°42' W 050°06'1110.9 1001.4 4.0-0.0
2015-Jan-26 01:00S 52°42' W 050°24'7 7.3 1001.3 3.6 0.2
2015-Jan-26 00:00S 52°42' W 050°36'19 9.6 1001.0 4.9-0.4
2015-Jan-25 22:00S 52°36' W 051°06'1110.9 1000.9 5.0 0.6
2015-Jan-25 21:00S 52°36' W 051°24'7 7.3 1000.7 5.1 0.4
2015-Jan-25 20:00S 52°36' W 051°36'2311.3 1000.6 5.2 1.3
2015-Jan-25 18:00S 52°30' W 052°12'18 9.1 1000.4 5.3 1.3
2015-Jan-25 16:00S 52°30' W 052°42'1312.5 1000.4 5.2 1.4
2015-Jan-25 15:00S 52°24' W 053°00'2211.0 1000.5 5.1 2.0
2015-Jan-25 13:00S 52°24' W 053°36'7 7.3 1000.2 5.4 1.7
2015-Jan-25 12:00S 52°24' W 053°48'1312.5 1000.6 5.2 2.0
2015-Jan-25 11:00S 52°18' W 054°06'1111.0 1000.3 5.4 2.7
2015-Jan-25 10:00S 52°18' W 054°24'1111.0 1000.1 5.6 4.0
2015-Jan-25 09:00S 52°18' W 054°42'2311.4 999.4 6.4 5.5
2015-Jan-25 07:00S 52°12' W 055°18'1111.0 998.9 6.7 6.4
2015-Jan-25 06:00S 52°12' W 055°36'2311.4 998.7 6.9 6.6
2015-Jan-25 04:00S 52°06' W 056°12'2211.1 999.0 7.5 7.2
2015-Jan-25 02:00S 52°06' W 056°48'1312.6 999.9 7.6 7.2
2015-Jan-25 01:00S 52°00' W 057°06'1111.1 999.9 7.6 7.2
2015-Jan-25 00:00S 52°00' W 057°24'1111.1 999.6 7.7 7.2
2015-Jan-24 23:00S 52°00' W 057°42'2311.5 998.9 7.9 7.2
2015-Jan-24 21:00S 51°54' W 058°18'4 3.7 998.9 9.9 8.2
2015-Jan-24 20:00S 51°54' W 058°24'0 0.0 999.0 14.3 9.8
2015-Jan-24 18:00S 51°54' W 058°24'0 0.0 999.4 14.8 9.6
2015-Jan-24 17:00S 51°54' W 058°24'0 0.0 999.5 14.810.0
2015-Jan-24 15:00S 51°54' W 058°24'0 0.0 1000.2 12.3 9.6
2015-Jan-24 14:00S 51°54' W 058°24'0 0.0 1000.8 11.7 9.2
2015-Jan-24 13:00S 51°54' W 058°24'0 0.0 1001.4 11.5 9.0
2015-Jan-24 12:00S 51°54' W 058°24'0 0.0 1002.3 10.4 9.2
2015-Jan-24 11:00S 51°54' W 058°24'0 0.0 1003.0 10.1 9.7
2015-Jan-24 10:00S 51°54' W 058°24'0 0.0 1003.6 9.4 9.1
2015-Jan-24 09:00S 51°54' W 058°24'0 0.0 1003.6 9.1 8.8
2015-Jan-24 08:00S 51°54' W 058°24'0 0.0 1004.4 8.7 8.4
2015-Jan-24 07:00S 51°54' W 058°24'0 0.0 1005.0 8.8 8.4
2015-Jan-24 06:00S 51°54' W 058°24'0 0.0 1006.2 8.8 8.4
2015-Jan-24 04:00S 51°54' W 058°24'0 0.0 1007.7 8.6 8.2
2015-Jan-24 03:00S 51°54' W 058°24'0 0.0 1008.7 8.2 7.8
2015-Jan-24 02:00S 51°54' W 058°24'0 0.0 1009.2 8.0 7.4
2015-Jan-24 01:00S 51°54' W 058°24'0 0.0 1009.8 7.8 7.1
2015-Jan-24 00:00S 51°54' W 058°24'0 0.0 1010.0 8.2 7.4
2015-Jan-23 23:00S 51°54' W 058°24'0 0.0 1010.3 8.9 8.1
2015-Jan-23 22:00S 51°54' W 058°24'0 0.0 1010.9 9.1 7.9
2015-Jan-23 21:00S 51°54' W 058°24'0 0.0 1011.0 10.0 8.2
2015-Jan-23 20:00S 51°54' W 058°24'0 0.0 1011.7 11.3 8.7
2015-Jan-23 19:00S 51°54' W 058°24'0 0.0 1011.9 10.4 8.0
2015-Jan-23 18:00S 51°54' W 058°24'0 0.0 1012.3 11.5 8.1
2015-Jan-23 17:00S 51°54' W 058°24'0 0.0 1012.6 12.4 8.5
2015-Jan-23 15:00S 51°54' W 058°24'0 0.0 1013.0 11.9 8.0
2015-Jan-23 14:00S 51°54' W 058°24'4 1.9 1013.0 11.9 7.7
2015-Jan-23 12:00S 51°54' W 058°30'4 3.7 1012.8 11.2 7.4
2015-Jan-23 11:00S 51°54' W 058°24'4 3.7 1012.2 10.4 7.9
2015-Jan-23 10:00S 51°54' W 058°18'7 7.4 1011.5 9.6 7.8
2015-Jan-23 09:00S 51°54' W 058°06'4 3.7 1010.3 9.3 8.0
2015-Jan-23 08:00S 51°54' W 058°00'4 3.7 1009.2 9.7 8.5
2015-Jan-23 07:00S 51°54' W 058°06'4 3.7 1008.5 10.3 8.7
2015-Jan-23 06:00S 51°54' W 058°00'0 0.0 1007.5 10.7 8.9
2015-Jan-23 05:00S 51°54' W 058°00'7 7.4 1007.5 10.8 8.8
2015-Jan-23 04:00S 51°54' W 058°12'7 7.4 1006.9 11.7 9.1
2015-Jan-23 03:00S 51°54' W 058°00'4 3.7 1005.4 12.3 9.8
2015-Jan-23 02:00S 51°54' W 057°54'7 7.1 1004.8 12.7 9.9
2015-Jan-23 01:00S 51°48' W 057°48'7 7.1 1003.8 12.810.4
2015-Jan-23 00:00S 51°42' W 057°42'4 1.9 1004.1 13.310.4
2015-Jan-22 22:00S 51°42' W 057°48'0 0.0 1002.9 17.810.6
2015-Jan-22 21:00S 51°42' W 057°48'0 0.0 1003.0 18.910.8
2015-Jan-22 19:00S 51°42' W 057°48'0 0.0 1002.9 18.310.4
2015-Jan-22 18:00S 51°42' W 057°48'   1003.5 19.311.0
Track history (hours):
 
Tides and Currents Weather Stations Pressure Air Temp Water Temp Dewpoint Dewpoint Depression Visibility Wind Speed Wind Dir Waves Ship Positions

Oceanographic research ship Ernest Shackleton (UK/Norway)

Detailed information on ship capabilities available from University of Delaware's Ocean Information Center and ARCUS's ALIAS (Arctic Logistics Information and Support) project.

Last reported at 2015-Feb-01 18:00 UTC. Time now 2015-Feb-01 19:43 UTC.
Position S 54°30' W 036°00'.

Length 80 m; beam 17 m; draft 7.4 m.

Type: Other ship. MMSI: 740357000.

AWS

Barometer 995.6 mb
Air temperature 4.4 ° C
Dewpoint 2.5 ° C

Date/timePositionNaut miles runAvg speedWind from/ knotsBaromVisibWave heightAir tempDewpointWater temp
2015-Feb-01 18:00S 54°30' W 036°00'3 1.7 995.6 4.4 2.5
2015-Feb-01 16:00S 54°30' W 036°06'0 0.0 997.4 6.4 2.7
2015-Feb-01 15:00S 54°30' W 036°06'0 0.0 998.6 4.7 2.8
2015-Feb-01 13:00S 54°30' W 036°06'0 0.0 1000.3 2.6 2.2
2015-Feb-01 12:00S 54°30' W 036°06'0 0.0 1001.1 2.3 2.0
2015-Feb-01 10:00S 54°30' W 036°06'3 3.5 1001.9 1.0 0.7
2015-Feb-01 09:00S 54°30' W 036°00'3 3.5 1002.2 1.6 1.3
2015-Feb-01 08:00S 54°30' W 035°54'0 0.0 1002.5 1.6 1.3
2015-Feb-01 07:00S 54°30' W 035°54'0 0.0 1002.5 1.9 1.6
2015-Feb-01 06:00S 54°30' W 035°54'6 6.0 1002.7 1.9 1.6
2015-Feb-01 05:00S 54°24' W 035°54'0 0.0 1002.9 2.1 1.8
2015-Feb-01 04:00S 54°24' W 035°54'6 6.0 1002.9 1.9 1.6
2015-Feb-01 03:00S 54°30' W 035°54'0 0.0 1003.1 2.3 2.0
2015-Feb-01 02:00S 54°30' W 035°54'0 0.0 1003.1 2.4 2.0
2015-Feb-01 01:00S 54°30' W 035°54'6 6.0 1003.1 2.1 1.7
2015-Feb-01 00:00S 54°24' W 035°54'3 3.5 1003.1 2.2 1.6
2015-Jan-31 23:00S 54°24' W 036°00'6 6.0 1002.2 3.4 2.4
2015-Jan-31 22:00S 54°18' W 036°00'4 3.5 1001.7 4.6 3.1
2015-Jan-31 21:00S 54°18' W 036°06'11 5.3 1001.0 5.1 3.2
2015-Jan-31 19:00S 54°18' W 036°24'0 0.0 1000.3 9.3 3.4
2015-Jan-31 18:00S 54°18' W 036°24'0 0.0 999.7 10.6 3.1
2015-Jan-31 17:00S 54°18' W 036°24'0 0.0 999.4 8.3 3.3
2015-Jan-31 16:00S 54°18' W 036°24'0 0.0 998.8 10.4 2.9
2015-Jan-31 15:00S 54°18' W 036°24'0 0.0 998.2 10.8 3.5
2015-Jan-31 14:00S 54°18' W 036°24'0 0.0 998.1 7.3 2.1
2015-Jan-31 12:00S 54°18' W 036°24'0 0.0 997.7 6.9 1.5
2015-Jan-31 11:00S 54°18' W 036°24'0 0.0 997.5 6.7 1.7
2015-Jan-31 10:00S 54°18' W 036°24'0 0.0 997.8 5.9 2.4
2015-Jan-31 09:00S 54°18' W 036°24'0 0.0 998.1 4.1 2.6
2015-Jan-31 07:00S 54°18' W 036°24'0 0.0 998.3 3.6 2.4
2015-Jan-31 06:00S 54°18' W 036°24'0 0.0 998.3 3.7 2.5
2015-Jan-31 05:00S 54°18' W 036°24'0 0.0 998.2 3.9 2.7
2015-Jan-31 04:00S 54°18' W 036°24'0 0.0 998.2 3.9 2.9
2015-Jan-31 03:00S 54°18' W 036°24'0 0.0 998.2 2.8 2.0
2015-Jan-31 02:00S 54°18' W 036°24'0 0.0 998.3 3.0 2.1
2015-Jan-31 01:00S 54°18' W 036°24'0 0.0 998.0 2.8 1.7
2015-Jan-31 00:00S 54°18' W 036°24'7 3.5 997.6 3.5 2.1
2015-Jan-30 22:00S 54°24' W 036°18'0 0.0 997.5 4.7 2.4
2015-Jan-30 21:00S 54°24' W 036°18'0 0.0 997.0 5.9 2.0
2015-Jan-30 20:00S 54°24' W 036°18'0 0.0 996.1 6.6 2.1
2015-Jan-30 19:00S 54°24' W 036°18'0 0.0 995.6 7.3 2.1
2015-Jan-30 18:00S 54°24' W 036°18'0 0.0 994.6 9.5 2.2
2015-Jan-30 16:00S 54°24' W 036°18'0 0.0 994.8 7.3 3.6
2015-Jan-30 14:00S 54°24' W 036°18'3 3.5 994.8 4.4 1.7
2015-Jan-30 13:00S 54°24' W 036°24'6 6.0 995.4 3.9 1.7
2015-Jan-30 12:00S 54°18' W 036°24'0 0.0 995.5 4.5 2.1
2015-Jan-30 11:00S 54°18' W 036°24'0 0.0 995.9 3.9 1.7
2015-Jan-30 09:00S 54°18' W 036°24'0 0.0 995.5 4.1 2.0
2015-Jan-30 08:00S 54°18' W 036°24'0 0.0 995.6 3.4 1.4
2015-Jan-30 06:00S 54°18' W 036°24'0 0.0 995.0 3.7 2.3
2015-Jan-30 05:00S 54°18' W 036°24'0 0.0 995.1 3.1 1.9
2015-Jan-30 04:00S 54°18' W 036°24'0 0.0 995.1 3.3 2.2
2015-Jan-30 03:00S 54°18' W 036°24'0 0.0 995.3 3.5 2.3
2015-Jan-30 02:00S 54°18' W 036°24'0 0.0 995.0 3.4 2.2
2015-Jan-30 01:00S 54°18' W 036°24'0 0.0 995.0 3.2 2.0
2015-Jan-30 00:00S 54°18' W 036°24'0 0.0 995.0 3.3 2.1
2015-Jan-29 23:00S 54°18' W 036°24'0 0.0 994.5 3.4 2.1
2015-Jan-29 22:00S 54°18' W 036°24'0 0.0 994.0 3.4 1.9
2015-Jan-29 21:00S 54°18' W 036°24'0 0.0 994.0 4.3 2.0
2015-Jan-29 20:00S 54°18' W 036°24'0 0.0 993.8 4.4 2.3
2015-Jan-29 19:00S 54°18' W 036°24'0 0.0 993.8 4.9 2.6
2015-Jan-29 18:00S 54°18' W 036°24'0 0.0 993.8 4.3 1.9
2015-Jan-29 16:00S 54°18' W 036°24'0 0.0 994.8 5.4 2.2
2015-Jan-29 15:00S 54°18' W 036°24'0 0.0 995.5 6.1 3.2
2015-Jan-29 14:00S 54°18' W 036°24'0 0.0 996.3 5.4 3.1
2015-Jan-29 13:00S 54°18' W 036°24'4 3.5 996.9 4.7 2.4
2015-Jan-29 12:00S 54°18' W 036°30'0 0.0 997.7 3.5 2.0
2015-Jan-29 11:00S 54°18' W 036°30'0 0.0 998.7 2.4 1.2
2015-Jan-29 10:00S 54°18' W 036°30'0 0.0 999.1 2.8 1.6
2015-Jan-29 09:00S 54°18' W 036°30'0 0.0 999.7 2.4 1.1
2015-Jan-29 08:00S 54°18' W 036°30'0 0.0 1000.1 2.5 0.9
2015-Jan-29 06:00S 54°18' W 036°30'0 0.0 1001.2 2.6 0.5
2015-Jan-29 05:00S 54°18' W 036°30'0 0.0 1002.0 3.3 0.9
2015-Jan-29 03:00S 54°18' W 036°30'0 0.0 1004.2 3.1 1.1
2015-Jan-29 02:00S 54°18' W 036°30'0 0.0 1005.1 3.8 0.6
2015-Jan-29 01:00S 54°18' W 036°30'0 0.0 1006.2 3.5 0.5
2015-Jan-29 00:00S 54°18' W 036°30'0 0.0 1006.0 3.2 0.8
2015-Jan-28 23:00S 54°18' W 036°30'0 0.0 1006.0 3.7 0.5
2015-Jan-28 22:00S 54°18' W 036°30'0 0.0 1006.8 4.0 0.6
2015-Jan-28 21:00S 54°18' W 036°30'0 0.0 1007.2 4.7 0.5
2015-Jan-28 20:00S 54°18' W 036°30'0 0.0 1007.2 7.1 1.8
2015-Jan-28 19:00S 54°18' W 036°30'0 0.0 1007.1 7.4 2.4
2015-Jan-28 18:00S 54°18' W 036°30'0 0.0 1007.4 10.7 1.1
2015-Jan-28 17:00S 54°18' W 036°30'0 0.0 1007.5 8.0 1.9
2015-Jan-28 16:00S 54°18' W 036°30'0 0.0 1008.2 8.5 2.5
2015-Jan-28 15:00S 54°18' W 036°30'0 0.0 1008.8 7.3 1.8
2015-Jan-28 14:00S 54°18' W 036°30'0 0.0 1009.0 6.6 2.4
2015-Jan-28 13:00S 54°18' W 036°30'0 0.0 1009.2 9.0 2.1
2015-Jan-28 12:00S 54°18' W 036°30'0 0.0 1009.5 6.3 2.2
2015-Jan-28 10:00S 54°18' W 036°30'0 0.0 1010.0 4.8 1.5
2015-Jan-28 09:00S 54°18' W 036°30'0 0.0 1010.1 3.0 0.8
2015-Jan-28 08:00S 54°18' W 036°30'1312.5 1009.9 2.7 0.8
2015-Jan-28 07:00S 54°06' W 036°24'7 7.0 1010.2 3.1 0.8
2015-Jan-28 06:00S 54°06' W 036°36'12 6.1 1010.3 3.5 1.3
2015-Jan-28 04:00S 54°00' W 036°54'4 3.5 1011.0 3.2-0.0
2015-Jan-28 03:00S 54°00' W 037°00'9 9.3 1011.1 3.6-0.4
2015-Jan-28 02:00S 53°54' W 037°12'7 7.1 1010.3 3.3-0.6
2015-Jan-28 01:00S 53°54' W 037°24'1110.6 1010.6 3.3-0.9
2015-Jan-28 00:00S 53°54' W 037°42'1212.2 1010.5 2.6-1.4
2015-Jan-27 23:00S 53°48' W 038°00'1110.6 1010.8 2.4-0.7
2015-Jan-27 22:00S 53°48' W 038°18'1110.6 1010.8 2.4-0.9
2015-Jan-27 21:00S 53°48' W 038°36'1110.6 1010.5 2.6-1.2
2015-Jan-27 20:00S 53°48' W 038°54'1212.2 1010.0 2.6-1.2
2015-Jan-27 19:00S 53°42' W 039°12'7 7.1 1009.8 2.6-1.5
2015-Jan-27 18:00S 53°42' W 039°24'1110.7 1009.4 2.6-1.8
2015-Jan-27 17:00S 53°42' W 039°42'1110.7 1009.1 2.4-1.0
2015-Jan-27 16:00S 53°42' W 040°00'1212.2 1009.0 2.4-0.2
2015-Jan-27 15:00S 53°36' W 040°18'7 7.1 1008.6 2.3-0.0
2015-Jan-27 14:00S 53°36' W 040°30'1110.7 1008.3 2.0-0.2
2015-Jan-27 13:00S 53°36' W 040°48'1110.7 1008.2 2.2-0.7
2015-Jan-27 12:00S 53°36' W 041°06'18 8.9 1007.9 1.9-0.3
2015-Jan-27 10:00S 53°36' W 041°36'1110.7 1007.1 2.0-0.9
2015-Jan-27 09:00S 53°36' W 041°54'19 9.4 1006.2 2.1-1.5
2015-Jan-27 07:00S 53°30' W 042°24'7 7.0 1005.2 1.3-0.6
2015-Jan-27 06:00S 53°24' W 042°30'1110.7 1004.5 1.4-0.3
2015-Jan-27 05:00S 53°24' W 042°48'19 9.4 1004.3 1.8-0.9
2015-Jan-27 03:00S 53°18' W 043°18'29 9.6 1004.0 1.7-0.6
2015-Jan-27 00:00S 53°18' W 044°06'1212.3 1003.5 1.7-1.3
2015-Jan-26 23:00S 53°12' W 044°24'1110.8 1003.3 2.0-1.1
2015-Jan-26 22:00S 53°12' W 044°42'1110.8 1003.2 2.2-0.7
2015-Jan-26 21:00S 53°12' W 045°00'19 9.5 1002.7 2.2-1.2
2015-Jan-26 19:00S 53°06' W 045°30'1110.8 1002.2 2.6-0.7
2015-Jan-26 18:00S 53°06' W 045°48'1110.8 1002.0 2.8-1.1
2015-Jan-26 17:00S 53°06' W 046°06'1110.8 1001.8 2.8-1.1
2015-Jan-26 16:00S 53°06' W 046°24'19 9.5 1002.0 2.8-1.3
2015-Jan-26 14:00S 53°00' W 046°54'1110.8 1002.3 2.8-0.8
2015-Jan-26 13:00S 53°00' W 047°12'7 7.2 1002.1 2.9-0.4
2015-Jan-26 12:00S 53°00' W 047°24'1212.4 1002.4 2.9-0.5
2015-Jan-26 11:00S 52°54' W 047°42'1110.9 1002.6 3.3-0.5
2015-Jan-26 10:00S 52°54' W 048°00'7 7.2 1002.1 3.2-1.0
2015-Jan-26 09:00S 52°54' W 048°12'2311.3 1001.8 3.2-0.9
2015-Jan-26 07:00S 52°48' W 048°48'7 7.3 1001.4 3.4-0.0
2015-Jan-26 06:00S 52°48' W 049°00'1110.9 1001.3 3.6 0.2
2015-Jan-26 05:00S 52°48' W 049°18'1110.9 1001.1 3.8-0.1
2015-Jan-26 04:00S 52°48' W 049°36'9 9.4 1001.5 3.7-0.2
2015-Jan-26 03:00S 52°42' W 049°48'1110.9 1001.2 3.7-0.3
2015-Jan-26 02:00S 52°42' W 050°06'1110.9 1001.4 4.0-0.0
2015-Jan-26 01:00S 52°42' W 050°24'7 7.3 1001.3 3.6 0.2
2015-Jan-26 00:00S 52°42' W 050°36'19 9.6 1001.0 4.9-0.4
2015-Jan-25 22:00S 52°36' W 051°06'1110.9 1000.9 5.0 0.6
2015-Jan-25 21:00S 52°36' W 051°24'7 7.3 1000.7 5.1 0.4
2015-Jan-25 20:00S 52°36' W 051°36'2311.3 1000.6 5.2 1.3
2015-Jan-25 18:00S 52°30' W 052°12'18 9.1 1000.4 5.3 1.3
2015-Jan-25 16:00S 52°30' W 052°42'1312.5 1000.4 5.2 1.4
2015-Jan-25 15:00S 52°24' W 053°00'2211.0 1000.5 5.1 2.0
2015-Jan-25 13:00S 52°24' W 053°36'7 7.3 1000.2 5.4 1.7
2015-Jan-25 12:00S 52°24' W 053°48'1312.5 1000.6 5.2 2.0
2015-Jan-25 11:00S 52°18' W 054°06'1111.0 1000.3 5.4 2.7
2015-Jan-25 10:00S 52°18' W 054°24'1111.0 1000.1 5.6 4.0
2015-Jan-25 09:00S 52°18' W 054°42'2311.4 999.4 6.4 5.5
2015-Jan-25 07:00S 52°12' W 055°18'1111.0 998.9 6.7 6.4
2015-Jan-25 06:00S 52°12' W 055°36'2311.4 998.7 6.9 6.6
2015-Jan-25 04:00S 52°06' W 056°12'2211.1 999.0 7.5 7.2
2015-Jan-25 02:00S 52°06' W 056°48'1312.6 999.9 7.6 7.2
2015-Jan-25 01:00S 52°00' W 057°06'1111.1 999.9 7.6 7.2
2015-Jan-25 00:00S 52°00' W 057°24'1111.1 999.6 7.7 7.2
2015-Jan-24 23:00S 52°00' W 057°42'2311.5 998.9 7.9 7.2
2015-Jan-24 21:00S 51°54' W 058°18'4 3.7 998.9 9.9 8.2
2015-Jan-24 20:00S 51°54' W 058°24'0 0.0 999.0 14.3 9.8
2015-Jan-24 18:00S 51°54' W 058°24'0 0.0 999.4 14.8 9.6
2015-Jan-24 17:00S 51°54' W 058°24'0 0.0 999.5 14.810.0
2015-Jan-24 15:00S 51°54' W 058°24'0 0.0 1000.2 12.3 9.6
2015-Jan-24 14:00S 51°54' W 058°24'0 0.0 1000.8 11.7 9.2
2015-Jan-24 13:00S 51°54' W 058°24'0 0.0 1001.4 11.5 9.0
2015-Jan-24 12:00S 51°54' W 058°24'0 0.0 1002.3 10.4 9.2
2015-Jan-24 11:00S 51°54' W 058°24'0 0.0 1003.0 10.1 9.7
2015-Jan-24 10:00S 51°54' W 058°24'0 0.0 1003.6 9.4 9.1
2015-Jan-24 09:00S 51°54' W 058°24'0 0.0 1003.6 9.1 8.8
2015-Jan-24 08:00S 51°54' W 058°24'0 0.0 1004.4 8.7 8.4
2015-Jan-24 07:00S 51°54' W 058°24'0 0.0 1005.0 8.8 8.4
2015-Jan-24 06:00S 51°54' W 058°24'0 0.0 1006.2 8.8 8.4
2015-Jan-24 04:00S 51°54' W 058°24'0 0.0 1007.7 8.6 8.2
2015-Jan-24 03:00S 51°54' W 058°24'0 0.0 1008.7 8.2 7.8
2015-Jan-24 02:00S 51°54' W 058°24'0 0.0 1009.2 8.0 7.4
2015-Jan-24 01:00S 51°54' W 058°24'0 0.0 1009.8 7.8 7.1
2015-Jan-24 00:00S 51°54' W 058°24'0 0.0 1010.0 8.2 7.4
2015-Jan-23 23:00S 51°54' W 058°24'0 0.0 1010.3 8.9 8.1
2015-Jan-23 22:00S 51°54' W 058°24'0 0.0 1010.9 9.1 7.9
2015-Jan-23 21:00S 51°54' W 058°24'0 0.0 1011.0 10.0 8.2
2015-Jan-23 20:00S 51°54' W 058°24'0 0.0 1011.7 11.3 8.7
2015-Jan-23 19:00S 51°54' W 058°24'0 0.0 1011.9 10.4 8.0
2015-Jan-23 18:00S 51°54' W 058°24'0 0.0 1012.3 11.5 8.1
2015-Jan-23 17:00S 51°54' W 058°24'0 0.0 1012.6 12.4 8.5
2015-Jan-23 15:00S 51°54' W 058°24'0 0.0 1013.0 11.9 8.0
2015-Jan-23 14:00S 51°54' W 058°24'4 1.9 1013.0 11.9 7.7
2015-Jan-23 12:00S 51°54' W 058°30'4 3.7 1012.8 11.2 7.4
2015-Jan-23 11:00S 51°54' W 058°24'4 3.7 1012.2 10.4 7.9
2015-Jan-23 10:00S 51°54' W 058°18'7 7.4 1011.5 9.6 7.8
2015-Jan-23 09:00S 51°54' W 058°06'4 3.7 1010.3 9.3 8.0
2015-Jan-23 08:00S 51°54' W 058°00'4 3.7 1009.2 9.7 8.5
2015-Jan-23 07:00S 51°54' W 058°06'4 3.7 1008.5 10.3 8.7
2015-Jan-23 06:00S 51°54' W 058°00'0 0.0 1007.5 10.7 8.9
2015-Jan-23 05:00S 51°54' W 058°00'7 7.4 1007.5 10.8 8.8
2015-Jan-23 04:00S 51°54' W 058°12'7 7.4 1006.9 11.7 9.1
2015-Jan-23 03:00S 51°54' W 058°00'4 3.7 1005.4 12.3 9.8
2015-Jan-23 02:00S 51°54' W 057°54'7 7.1 1004.8 12.7 9.9
2015-Jan-23 01:00S 51°48' W 057°48'7 7.1 1003.8 12.810.4
2015-Jan-23 00:00S 51°42' W 057°42'4 1.9 1004.1 13.310.4
2015-Jan-22 22:00S 51°42' W 057°48'0 0.0 1002.9 17.810.6
2015-Jan-22 21:00S 51°42' W 057°48'0 0.0 1003.0 18.910.8
2015-Jan-22 19:00S 51°42' W 057°48'0 0.0 1002.9 18.310.4
2015-Jan-22 18:00S 51°42' W 057°48'   1003.5 19.311.0

Dump ship's entire track history